Beek, Netherlands
Current Conditions -  °F | °C
As of 7:25 PM on Monday 26 Jan 2015 (Local Time) from EHBK Reporting Station
Broken Clouds Broken Clouds  
Wind Chill: 40°   Ceiling: 1000
Heat Index: 43°   Visibility: 6mi
Dew Point: 41°   Wind: 5mph
Humidity: 93%   Direction: 300°WNW
Pressure: 30.12"   Gusts: NA
Location:  50.94°N, 5.8°E
Report Text: EHBK 261825Z AUTO 30004KT 260V340 9999 BKN010 BKN013 BKN01706/05 Q1020 NOSIG
Loading
Personal Weather Stations






























Interactive Weather Map New forecast layout! Learn more

10-Day Weather Forecast

Advertisements
Track Severe Weather on mobile